createdAt,value
2018-06-21T00:00:05.933Z,12.25
2018-06-21T00:02:39.396Z,12.35
2018-06-21T00:05:12.810Z,11.55
2018-06-21T00:07:46.224Z,10.78
2018-06-21T00:10:19.639Z,12.10
2018-06-21T00:12:53.057Z,11.63
2018-06-21T00:15:26.452Z,13.60
2018-06-21T00:17:59.880Z,13.65
2018-06-21T00:20:33.280Z,12.18
2018-06-21T00:23:06.715Z,11.97
2018-06-21T00:25:40.133Z,11.73
2018-06-21T00:28:13.694Z,10.48
2018-06-21T00:30:47.228Z,10.90
2018-06-21T00:33:20.662Z,10.68
2018-06-21T00:35:54.061Z,10.40
2018-06-21T00:38:27.475Z,10.40
2018-06-21T00:41:00.880Z,11.93
2018-06-21T00:43:34.508Z,10.65
2018-06-21T00:46:07.942Z,11.40
2018-06-21T00:48:41.364Z,11.53
2018-06-21T00:51:14.767Z,11.60
2018-06-21T00:53:48.218Z,12.98
2018-06-21T00:56:21.650Z,11.38
2018-06-21T00:58:55.056Z,11.60
2018-06-21T01:01:28.469Z,11.48
2018-06-21T01:04:01.891Z,10.95
2018-06-21T01:06:35.307Z,11.97
2018-06-21T01:09:08.744Z,11.00
2018-06-21T01:11:42.132Z,11.48
2018-06-21T01:14:15.590Z,11.65
2018-06-21T01:16:48.999Z,12.88
2018-06-21T01:19:22.399Z,12.95
2018-06-21T01:21:55.785Z,13.18
2018-06-21T01:24:29.175Z,13.32
2018-06-21T01:27:02.577Z,12.53
2018-06-21T01:29:36.305Z,11.88
2018-06-21T01:32:09.818Z,11.65
2018-06-21T01:34:43.257Z,11.38
2018-06-21T01:37:16.644Z,10.85
2018-06-21T01:39:50.105Z,12.10
2018-06-21T01:42:23.523Z,12.60
2018-06-21T01:44:56.942Z,12.50
2018-06-21T01:47:30.329Z,11.88
2018-06-21T01:50:03.964Z,11.95
2018-06-21T01:52:37.365Z,11.50
2018-06-21T01:55:10.796Z,12.00
2018-06-21T01:57:44.216Z,11.20
2018-06-21T02:00:17.649Z,11.75
2018-06-21T02:02:51.029Z,11.90
2018-06-21T02:05:24.435Z,12.35
2018-06-21T02:07:57.884Z,12.35
2018-06-21T02:10:31.261Z,13.10
2018-06-21T02:13:04.752Z,11.50
2018-06-21T02:15:38.226Z,12.00
2018-06-21T02:18:11.639Z,12.70
2018-06-21T02:20:45.725Z,12.20
2018-06-21T02:23:19.527Z,10.95
2018-06-21T02:25:54.904Z,10.58
2018-06-21T02:28:28.315Z,10.58
2018-06-21T02:31:01.776Z,12.33
2018-06-21T02:33:35.195Z,9.68
2018-06-21T02:36:08.568Z,10.98
2018-06-21T02:38:41.979Z,12.07
2018-06-21T02:41:15.412Z,9.88
2018-06-21T02:43:48.833Z,9.90
2018-06-21T02:46:22.227Z,9.90
2018-06-21T02:48:55.644Z,11.43
2018-06-21T02:51:29.080Z,11.12
2018-06-21T02:54:02.544Z,10.58
2018-06-21T02:56:35.948Z,10.30
2018-06-21T02:59:09.370Z,10.23
2018-06-21T03:01:42.780Z,10.13
2018-06-21T03:04:16.200Z,11.00
2018-06-21T03:06:49.598Z,10.65
2018-06-21T03:09:23.024Z,10.38
2018-06-21T03:11:56.455Z,11.12
2018-06-21T03:14:29.900Z,11.05
2018-06-21T03:17:03.325Z,11.30
2018-06-21T03:19:36.751Z,11.88
2018-06-21T03:22:10.248Z,11.73
2018-06-21T03:24:43.639Z,10.68
2018-06-21T03:27:17.055Z,13.00
2018-06-21T03:29:50.481Z,12.60
2018-06-21T03:32:23.925Z,12.25
2018-06-21T03:34:57.329Z,12.68
2018-06-21T03:37:30.753Z,11.45
2018-06-21T03:40:04.282Z,12.20
2018-06-21T03:42:37.678Z,11.12
2018-06-21T03:45:11.093Z,11.12
2018-06-21T03:47:44.501Z,10.82
2018-06-21T03:50:17.896Z,11.03
2018-06-21T03:52:51.407Z,12.15
2018-06-21T03:55:24.840Z,11.70
2018-06-21T03:57:58.220Z,11.55
2018-06-21T04:00:31.743Z,11.70
2018-06-21T04:03:05.152Z,12.75
2018-06-21T04:05:38.581Z,10.80
2018-06-21T04:08:11.975Z,12.40
2018-06-21T04:10:45.377Z,10.93
2018-06-21T04:13:18.771Z,11.33
2018-06-21T04:15:52.220Z,12.68
2018-06-21T04:18:30.923Z,11.45
2018-06-21T04:21:05.002Z,12.10
2018-06-21T04:23:38.470Z,13.03
2018-06-21T04:26:11.923Z,13.32
2018-06-21T04:28:45.344Z,12.80
2018-06-21T04:31:18.763Z,13.53
2018-06-21T04:33:52.136Z,13.28
2018-06-21T04:36:25.553Z,12.20
2018-06-21T04:38:58.977Z,12.73
2018-06-21T04:41:32.393Z,12.70
2018-06-21T04:44:05.837Z,14.23
2018-06-21T04:46:39.252Z,14.00
2018-06-21T04:49:12.641Z,13.28
2018-06-21T04:51:46.051Z,14.23
2018-06-21T04:54:19.520Z,13.90
2018-06-21T04:56:52.952Z,13.43
2018-06-21T04:59:26.360Z,13.38
2018-06-21T05:01:59.842Z,12.25
2018-06-21T05:04:33.249Z,11.90
2018-06-21T05:07:06.716Z,12.58
2018-06-21T05:09:40.156Z,14.13
2018-06-21T05:12:13.837Z,14.50
2018-06-21T05:14:47.254Z,11.48
2018-06-21T05:17:20.694Z,11.60
2018-06-21T05:19:54.095Z,11.83
2018-06-21T05:22:27.515Z,11.65
2018-06-21T05:25:00.985Z,12.15
2018-06-21T05:27:34.421Z,12.82
2018-06-21T05:30:07.862Z,12.80
2018-06-21T05:32:41.308Z,13.53
2018-06-21T05:35:14.745Z,12.58
2018-06-21T05:37:48.206Z,14.13
2018-06-21T05:40:32.040Z,12.37
2018-06-21T05:43:05.952Z,11.40
2018-06-21T05:45:39.390Z,12.35
2018-06-21T05:48:12.803Z,13.18
2018-06-21T05:50:46.308Z,11.95
2018-06-21T05:53:19.739Z,11.25
2018-06-21T05:55:53.148Z,11.20
2018-06-21T05:58:26.556Z,11.75
2018-06-21T06:00:59.968Z,10.60
2018-06-21T06:03:33.356Z,12.50
2018-06-21T06:06:06.799Z,11.00
2018-06-21T06:08:40.327Z,12.43
2018-06-21T06:11:13.784Z,11.25
2018-06-21T06:13:47.182Z,10.58
2018-06-21T06:16:20.620Z,11.18
2018-06-21T06:18:54.038Z,12.30
2018-06-21T06:21:27.465Z,17.62
2018-06-21T06:24:00.837Z,21.10
2018-06-21T06:26:34.322Z,27.00
2018-06-21T06:29:07.697Z,21.68
2018-06-21T06:31:41.244Z,26.97
2018-06-21T06:34:14.682Z,21.00
2018-06-21T06:36:48.132Z,18.70
2018-06-21T06:39:22.228Z,10.95
2018-06-21T06:41:55.659Z,7.72
2018-06-21T06:44:29.074Z,5.28
2018-06-21T06:47:02.518Z,2.95
2018-06-21T06:49:35.958Z,3.02
2018-06-21T06:52:09.399Z,2.50
2018-06-21T06:54:42.838Z,2.00
2018-06-21T06:57:16.264Z,1.40
2018-06-21T06:59:49.695Z,1.40
2018-06-21T07:02:23.146Z,1.80
2018-06-21T07:04:56.721Z,1.90
2018-06-21T07:07:30.166Z,1.62
2018-06-21T07:10:03.693Z,2.90
2018-06-21T07:12:37.144Z,2.72
2018-06-21T07:15:10.634Z,2.62
2018-06-21T07:17:44.093Z,1.67
2018-06-21T07:20:17.497Z,1.72
2018-06-21T07:22:50.913Z,3.62
2018-06-21T07:25:24.337Z,2.80
2018-06-21T07:27:57.799Z,3.83
2018-06-21T07:30:31.212Z,3.40
2018-06-21T07:33:04.714Z,3.50
2018-06-21T07:35:38.089Z,2.58
2018-06-21T07:38:11.543Z,4.25
2018-06-21T07:40:44.988Z,5.03
2018-06-21T07:43:18.405Z,3.50
2018-06-21T07:45:51.988Z,4.20
2018-06-21T07:48:25.586Z,3.77
2018-06-21T07:50:58.987Z,3.33
2018-06-21T07:53:32.429Z,2.95
2018-06-21T07:56:05.841Z,3.47
2018-06-21T07:58:39.301Z,3.70
2018-06-21T08:01:12.844Z,3.00
2018-06-21T08:03:46.292Z,5.90
2018-06-21T08:06:19.664Z,4.70
2018-06-21T08:08:53.091Z,3.85
2018-06-21T08:11:26.505Z,3.47
2018-06-21T08:13:59.979Z,6.85
2018-06-21T08:16:33.450Z,4.25
2018-06-21T08:19:06.948Z,4.08
2018-06-21T08:21:40.452Z,3.47
2018-06-21T08:24:17.779Z,5.00
2018-06-21T08:26:51.367Z,3.75
2018-06-21T08:29:24.857Z,10.72
2018-06-21T08:31:58.325Z,4.90
2018-06-21T08:34:31.826Z,4.05
2018-06-21T08:37:06.128Z,6.65
2018-06-21T08:39:39.933Z,8.65
2018-06-21T08:42:14.115Z,6.62
2018-06-21T08:44:47.791Z,5.58
2018-06-21T08:47:21.368Z,11.12
2018-06-21T08:49:56.545Z,4.45
2018-06-21T08:52:30.245Z,5.22
2018-06-21T08:55:03.772Z,4.30
2018-06-21T08:57:37.426Z,5.12
2018-06-21T09:00:11.007Z,8.40
2018-06-21T09:02:44.548Z,4.42
2018-06-21T09:05:17.973Z,6.33
2018-06-21T09:07:51.606Z,12.20
2018-06-21T09:10:25.001Z,15.18
2018-06-21T09:12:58.514Z,3.67
2018-06-21T09:15:31.999Z,13.13
2018-06-21T09:18:05.594Z,6.45
2018-06-21T09:20:39.052Z,6.87
2018-06-21T09:23:12.506Z,6.97
2018-06-21T09:25:45.888Z,5.42
2018-06-21T09:28:19.407Z,6.55
2018-06-21T09:30:52.839Z,4.22
2018-06-21T09:33:26.358Z,3.92
2018-06-21T09:35:59.816Z,3.87
2018-06-21T09:38:38.529Z,5.30
2018-06-21T09:41:17.218Z,4.03
2018-06-21T09:44:03.822Z,4.08
2018-06-21T09:46:34.648Z,4.03
2018-06-21T09:49:08.057Z,4.47
2018-06-21T09:51:41.439Z,6.10
2018-06-21T09:54:14.886Z,4.92
2018-06-21T09:56:48.302Z,5.30
2018-06-21T09:59:21.707Z,5.80
2018-06-21T10:01:55.208Z,3.98
2018-06-21T10:04:28.631Z,4.70
2018-06-21T10:07:02.096Z,3.83
2018-06-21T10:09:35.480Z,4.12
2018-06-21T10:12:08.951Z,3.60
2018-06-21T10:14:42.333Z,3.85
2018-06-21T10:17:15.755Z,3.75
2018-06-21T10:19:49.139Z,3.75
2018-06-21T10:22:22.531Z,3.75
2018-06-21T10:24:55.929Z,3.87
2018-06-21T10:27:29.328Z,3.70
2018-06-21T10:30:02.706Z,3.10
2018-06-21T10:32:36.129Z,3.75
2018-06-21T10:35:09.761Z,3.80
2018-06-21T10:37:43.061Z,4.10
2018-06-21T10:40:16.525Z,3.67
2018-06-21T10:42:49.916Z,3.37
2018-06-21T10:45:23.328Z,3.45
2018-06-21T10:47:56.740Z,3.70
2018-06-21T10:50:30.134Z,3.58
2018-06-21T10:53:03.525Z,4.65
2018-06-21T10:55:36.932Z,5.35
2018-06-21T10:58:10.312Z,3.87
2018-06-21T11:00:43.752Z,4.55
2018-06-21T11:03:17.177Z,4.15
2018-06-21T11:05:50.575Z,4.45
2018-06-21T11:08:24.047Z,4.40
2018-06-21T11:10:57.482Z,1.72
2018-06-21T11:13:30.947Z,1.85
2018-06-21T11:16:04.433Z,2.77
2018-06-21T11:18:37.869Z,2.05
2018-06-21T11:21:11.325Z,2.27
2018-06-21T11:23:44.723Z,2.62
2018-06-21T11:26:18.144Z,2.20
2018-06-21T11:28:51.571Z,2.72
2018-06-21T11:31:24.995Z,2.75
2018-06-21T11:33:58.394Z,2.37
2018-06-21T11:36:31.808Z,2.50
2018-06-21T11:39:07.525Z,3.10
2018-06-21T11:41:40.966Z,3.33
2018-06-21T11:44:14.369Z,3.12
2018-06-21T11:46:47.943Z,2.87
2018-06-21T11:49:21.295Z,2.90
2018-06-21T11:51:54.739Z,2.50
2018-06-21T11:54:28.138Z,3.10
2018-06-21T11:57:01.567Z,2.67
2018-06-21T11:59:35.016Z,2.58
2018-06-21T12:02:08.467Z,2.65
2018-06-21T12:04:42.258Z,2.45
2018-06-21T12:07:15.899Z,3.45
2018-06-21T12:09:49.247Z,2.75
2018-06-21T12:12:22.636Z,3.00
2018-06-21T12:14:56.297Z,3.10
2018-06-21T12:17:29.741Z,2.33
2018-06-21T12:20:03.179Z,2.55
2018-06-21T12:22:36.584Z,2.95
2018-06-21T12:25:10.187Z,2.70
2018-06-21T12:27:43.636Z,2.92
2018-06-21T12:30:17.111Z,2.10
2018-06-21T12:32:50.536Z,2.05
2018-06-21T12:35:24.399Z,1.70
2018-06-21T12:37:58.112Z,1.67
2018-06-21T12:40:31.517Z,1.90
2018-06-21T12:43:05.252Z,1.80
2018-06-21T12:45:38.901Z,1.37
2018-06-21T12:48:12.324Z,1.72
2018-06-21T12:50:45.989Z,2.25
2018-06-21T12:53:19.373Z,2.10
2018-06-21T12:55:52.842Z,2.27
2018-06-21T12:58:26.249Z,2.65
2018-06-21T13:00:59.657Z,2.33
2018-06-21T13:03:33.055Z,2.10
2018-06-21T13:06:06.500Z,2.27
2018-06-21T13:08:50.991Z,2.22
2018-06-21T13:12:38.450Z,1.60
2018-06-21T13:15:11.840Z,2.58
2018-06-21T13:17:45.311Z,2.42
2018-06-21T13:20:18.678Z,2.67
2018-06-21T13:22:52.208Z,2.87
2018-06-21T13:25:25.595Z,2.62
2018-06-21T13:27:59.011Z,2.17
2018-06-21T13:30:32.405Z,2.37
2018-06-21T13:33:06.090Z,2.62
2018-06-21T13:35:39.521Z,1.98
2018-06-21T13:38:12.924Z,1.90
2018-06-21T13:40:46.317Z,1.92
2018-06-21T13:43:19.737Z,1.47
2018-06-21T13:45:53.159Z,1.50
2018-06-21T13:48:26.623Z,1.30
2018-06-21T13:51:00.032Z,2.08
2018-06-21T13:53:33.451Z,1.12
2018-06-21T13:56:06.860Z,1.32
2018-06-21T13:58:40.257Z,1.30
2018-06-21T14:01:13.653Z,1.52
2018-06-21T14:03:47.077Z,1.50
2018-06-21T14:06:20.466Z,1.30
2018-06-21T14:08:53.851Z,1.07
2018-06-21T14:11:27.288Z,2.02
2018-06-21T14:14:00.667Z,1.30
2018-06-21T14:16:34.127Z,1.27
2018-06-21T14:19:07.746Z,1.40
2018-06-21T14:21:41.163Z,1.42
2018-06-21T14:24:15.455Z,1.40
2018-06-21T14:26:48.891Z,1.25
2018-06-21T14:29:22.326Z,1.60
2018-06-21T14:31:55.724Z,1.22
2018-06-21T14:34:30.216Z,1.20
2018-06-21T14:37:03.635Z,1.67
2018-06-21T14:39:37.040Z,1.22
2018-06-21T14:42:10.652Z,1.30
2018-06-21T14:44:44.034Z,1.42
2018-06-21T14:47:17.917Z,1.50
2018-06-21T14:49:51.351Z,1.60
2018-06-21T14:52:24.997Z,1.40
2018-06-21T14:54:58.381Z,1.30
2018-06-21T14:57:31.788Z,1.20
2018-06-21T15:00:05.330Z,1.50
2018-06-21T15:02:38.752Z,1.10
2018-06-21T15:05:12.157Z,1.02
2018-06-21T15:07:46.642Z,1.20
2018-06-21T15:10:20.036Z,1.35
2018-06-21T15:12:53.448Z,1.02
2018-06-21T15:15:26.849Z,1.27
2018-06-21T15:18:00.348Z,1.27
2018-06-21T15:20:33.847Z,1.00
2018-06-21T15:23:07.518Z,1.00
2018-06-21T15:25:40.882Z,1.40
2018-06-21T15:28:14.323Z,1.00
2018-06-21T15:30:47.722Z,1.05
2018-06-21T15:33:21.230Z,1.10
2018-06-21T15:35:54.625Z,1.40
2018-06-21T15:38:28.051Z,1.22
2018-06-21T15:41:01.485Z,1.30
2018-06-21T15:43:34.948Z,0.98
2018-06-21T15:46:08.525Z,1.05
2018-06-21T15:48:41.952Z,1.10
2018-06-21T15:51:15.743Z,1.17
2018-06-21T15:53:49.144Z,1.07
2018-06-21T15:56:22.515Z,1.00
2018-06-21T15:58:55.991Z,0.95
2018-06-21T16:01:29.386Z,1.00
2018-06-21T16:04:02.781Z,1.20
2018-06-21T16:06:36.199Z,0.90
2018-06-21T16:09:10.635Z,0.90
2018-06-21T16:11:44.062Z,1.17
2018-06-21T16:14:17.592Z,1.07
2018-06-21T16:16:51.020Z,1.10
2018-06-21T16:19:24.504Z,1.20
2018-06-21T16:21:57.897Z,1.20
2018-06-21T16:24:31.406Z,0.90
2018-06-21T16:27:04.835Z,1.10
2018-06-21T16:29:38.470Z,1.20
2018-06-21T16:32:12.034Z,0.90
2018-06-21T16:34:45.574Z,0.93
2018-06-21T16:37:18.970Z,1.20
2018-06-21T16:39:52.403Z,1.02
2018-06-21T16:42:25.808Z,0.93
2018-06-21T16:45:00.212Z,1.27
2018-06-21T16:47:33.737Z,0.95
2018-06-21T16:50:07.239Z,1.15
2018-06-21T16:52:40.641Z,0.98
2018-06-21T16:55:14.077Z,1.20
2018-06-21T16:57:47.463Z,1.20
2018-06-21T17:00:20.893Z,0.85
2018-06-21T17:02:54.309Z,1.00
2018-06-21T17:05:27.691Z,1.35
2018-06-21T17:08:01.085Z,1.20
2018-06-21T17:10:34.519Z,1.30
2018-06-21T17:13:07.940Z,1.20
2018-06-21T17:15:41.328Z,1.45
2018-06-21T17:18:14.768Z,0.98
2018-06-21T17:20:48.239Z,1.45
2018-06-21T17:23:21.646Z,1.27
2018-06-21T17:25:55.039Z,1.40
2018-06-21T17:28:28.537Z,1.50
2018-06-21T17:31:02.585Z,1.10
2018-06-21T17:33:36.012Z,1.32
2018-06-21T17:36:09.499Z,1.27
2018-06-21T17:38:43.031Z,1.10
2018-06-21T17:41:16.431Z,0.93
2018-06-21T17:43:49.892Z,1.37
2018-06-21T17:46:23.260Z,1.05
2018-06-21T17:48:56.665Z,1.17
2018-06-21T17:51:30.045Z,1.32
2018-06-21T17:54:03.532Z,1.50
2018-06-21T17:56:36.957Z,1.52
2018-06-21T17:59:10.374Z,1.40
2018-06-21T18:01:43.873Z,1.50
2018-06-21T18:04:17.950Z,1.50
2018-06-21T18:06:51.336Z,1.92
2018-06-21T18:09:24.764Z,1.62
2018-06-21T18:11:58.269Z,1.80
2018-06-21T18:14:31.743Z,1.82
2018-06-21T18:17:05.132Z,1.52
2018-06-21T18:19:38.615Z,1.77
2018-06-21T18:22:12.008Z,1.90
2018-06-21T18:24:45.445Z,2.05
2018-06-21T18:27:18.844Z,1.20
2018-06-21T18:29:52.263Z,1.80
2018-06-21T18:32:25.692Z,1.47
2018-06-21T18:34:59.315Z,1.60
2018-06-21T18:37:32.744Z,1.98
2018-06-21T18:40:06.244Z,1.60
2018-06-21T18:42:39.725Z,1.95
2018-06-21T18:45:13.577Z,2.10
2018-06-21T18:47:47.045Z,1.50
2018-06-21T18:50:20.594Z,1.75
2018-06-21T18:52:54.039Z,1.75
2018-06-21T18:55:27.487Z,1.27
2018-06-21T18:58:00.947Z,1.37
2018-06-21T19:00:34.470Z,1.60
2018-06-21T19:03:07.890Z,1.27
2018-06-21T19:05:41.368Z,1.50
2018-06-21T19:08:21.005Z,1.85
2018-06-21T19:10:59.917Z,1.87
2018-06-21T19:13:33.400Z,1.62
2018-06-21T19:16:06.931Z,1.72
2018-06-21T19:18:40.360Z,1.57
2018-06-21T19:21:13.841Z,1.55
2018-06-21T19:23:47.288Z,1.30
2018-06-21T19:26:20.883Z,1.30
2018-06-21T19:28:54.245Z,1.12
2018-06-21T19:31:27.633Z,1.27
2018-06-21T19:34:01.172Z,1.30
2018-06-21T19:36:34.652Z,1.35
2018-06-21T19:39:09.677Z,1.42
2018-06-21T19:41:43.188Z,1.30
2018-06-21T19:44:16.581Z,1.45
2018-06-21T19:46:49.978Z,1.30
2018-06-21T19:49:23.407Z,1.47
2018-06-21T19:51:56.913Z,1.42
2018-06-21T19:54:30.271Z,1.67
2018-06-21T19:57:03.686Z,1.57
2018-06-21T19:59:37.054Z,1.80
2018-06-21T20:02:10.441Z,1.42
2018-06-21T20:04:43.856Z,1.83
2018-06-21T20:07:17.307Z,1.50
2018-06-21T20:09:50.700Z,1.73
2018-06-21T20:12:24.115Z,1.70
2018-06-21T20:14:57.608Z,1.87
2018-06-21T20:17:31.049Z,1.70
2018-06-21T20:20:09.707Z,1.80
2018-06-21T20:22:43.105Z,1.87
2018-06-21T20:25:16.473Z,1.60
2018-06-21T20:27:49.889Z,1.67
2018-06-21T20:30:23.295Z,1.60
2018-06-21T20:32:56.705Z,1.50
2018-06-21T20:35:30.321Z,1.87
2018-06-21T20:38:03.776Z,1.10
2018-06-21T20:40:37.148Z,1.50
2018-06-21T20:43:10.564Z,2.10
2018-06-21T20:45:43.965Z,1.87
2018-06-21T20:48:17.384Z,1.50
2018-06-21T20:50:50.770Z,2.00
2018-06-21T20:53:24.204Z,1.50
2018-06-21T20:55:57.660Z,1.70
2018-06-21T20:58:31.057Z,1.77
2018-06-21T21:01:04.471Z,1.60
2018-06-21T21:03:37.913Z,1.67
2018-06-21T21:06:11.401Z,1.43
2018-06-21T21:08:44.860Z,1.67
2018-06-21T21:11:18.243Z,2.03
2018-06-21T21:13:51.644Z,1.80
2018-06-21T21:16:25.059Z,1.37
2018-06-21T21:18:58.504Z,1.90
2018-06-21T21:21:31.899Z,1.90
2018-06-21T21:24:05.365Z,2.13
2018-06-21T21:26:38.761Z,1.70
2018-06-21T21:29:12.176Z,2.40
2018-06-21T21:31:45.633Z,1.67
2018-06-21T21:34:19.071Z,1.90
2018-06-21T21:36:52.462Z,2.10
2018-06-21T21:39:25.861Z,1.60
2018-06-21T21:41:59.265Z,1.77
2018-06-21T21:44:33.009Z,1.60
2018-06-21T21:47:06.609Z,2.20
2018-06-21T21:49:40.040Z,2.10
2018-06-21T21:52:13.454Z,1.70
2018-06-21T21:54:46.856Z,1.67
2018-06-21T21:57:20.331Z,1.40
2018-06-21T21:59:53.727Z,1.70
2018-06-21T22:02:27.169Z,1.80
2018-06-21T22:05:00.568Z,1.40
2018-06-21T22:07:33.964Z,1.73
2018-06-21T22:10:07.409Z,1.90
2018-06-21T22:12:40.787Z,1.57
2018-06-21T22:15:14.215Z,1.90
2018-06-21T22:17:47.602Z,1.97
2018-06-21T22:20:21.081Z,2.43
2018-06-21T22:22:54.458Z,2.20
2018-06-21T22:25:28.502Z,2.20
2018-06-21T22:28:01.887Z,2.00
2018-06-21T22:30:35.289Z,2.00
2018-06-21T22:33:08.692Z,2.13
2018-06-21T22:35:42.209Z,2.40
2018-06-21T22:38:15.935Z,2.67
2018-06-21T22:40:49.482Z,2.10
2018-06-21T22:43:23.038Z,2.57
2018-06-21T22:45:56.529Z,2.30
2018-06-21T22:48:30.151Z,2.00
2018-06-21T22:51:03.764Z,2.70
2018-06-21T22:53:37.429Z,2.40
2018-06-21T22:56:11.036Z,2.70
2018-06-21T22:58:44.524Z,2.20
2018-06-21T23:01:17.908Z,2.83
2018-06-21T23:03:51.332Z,2.40
2018-06-21T23:06:24.731Z,2.73
2018-06-21T23:08:58.112Z,2.07
2018-06-21T23:11:31.500Z,2.30
2018-06-21T23:14:04.850Z,2.40
2018-06-21T23:16:38.243Z,2.20
2018-06-21T23:19:31.736Z,2.70
2018-06-21T23:22:05.212Z,2.67
2018-06-21T23:24:38.617Z,2.70
2018-06-21T23:27:12.030Z,2.63
2018-06-21T23:29:45.478Z,3.27
2018-06-21T23:32:18.914Z,2.30
2018-06-21T23:34:52.320Z,2.90
2018-06-21T23:37:25.740Z,2.87
2018-06-21T23:39:59.158Z,2.63
2018-06-21T23:42:32.556Z,1.90
2018-06-21T23:45:05.989Z,2.43
2018-06-21T23:47:39.384Z,2.40
2018-06-21T23:50:12.770Z,2.50
2018-06-21T23:52:46.164Z,2.50
2018-06-21T23:55:19.573Z,1.90
2018-06-21T23:57:52.985Z,2.20
